Time;durP1;ratioP1;P1;durP2;ratioP2;P2;SDS_P1;SDS_P2;PMS_P1;PMS_P2;Temp;Humidity;BMP_temperature;BMP_pressure;BME280_temperature;BME280_humidity;BME280_pressure;Samples;Min_cycle;Max_cycle;Signal;HPM_P1;HPM_P2
2022/05/31 00:00:42;;;;;;;5.05;2.70;;;;;;;4.26;87.39;98515.25;4187668;28;20105;-71
2022/05/31 00:02:44;;;;;;;3.95;2.42;;;;;;;4.29;86.57;98511.84;4189119;28;20044;-71
2022/05/31 00:04:44;;;;;;;3.35;2.38;;;;;;;4.30;87.14;98514.22;4189982;28;20068;-71
2022/05/31 00:06:45;;;;;;;4.15;2.55;;;;;;;4.28;87.62;98508.28;4187539;28;20045;-71
2022/05/31 00:08:45;;;;;;;3.65;2.50;;;;;;;4.30;87.54;98500.53;4187098;28;20044;-71
2022/05/31 00:10:46;;;;;;;6.75;2.42;;;;;;;4.34;86.00;98506.16;4186961;28;20075;-71
2022/05/31 00:12:47;;;;;;;3.05;2.47;;;;;;;4.34;86.27;98498.75;4188221;28;20480;-71
2022/05/31 00:14:47;;;;;;;5.75;2.90;;;;;;;4.31;86.17;98496.69;4187454;28;20726;-71
2022/05/31 00:16:48;;;;;;;4.80;2.00;;;;;;;4.21;87.33;98497.88;4187548;28;20033;-71
2022/05/31 00:18:48;;;;;;;3.83;2.47;;;;;;;4.18;87.52;98498.56;4187639;28;20045;-71
2022/05/31 00:20:48;;;;;;;3.22;2.85;;;;;;;4.19;86.80;98500.16;4184673;28;20041;-71
2022/05/31 00:22:49;;;;;;;7.78;2.60;;;;;;;4.16;87.42;98506.31;4188437;28;20071;-71
2022/05/31 00:24:50;;;;;;;7.32;2.72;;;;;;;4.22;85.86;98502.25;4191381;28;20517;-71
2022/05/31 00:26:50;;;;;;;5.13;2.97;;;;;;;4.19;87.23;98494.66;4189774;28;20119;-71
2022/05/31 00:28:51;;;;;;;8.02;3.20;;;;;;;4.16;87.23;98494.56;4187007;28;20155;-71
2022/05/31 00:30:53;;;;;;;3.40;2.50;;;;;;;4.12;87.83;98504.56;4187557;28;20094;-71
2022/05/31 00:32:53;;;;;;;4.22;2.60;;;;;;;4.07;86.57;98502.03;4188690;28;20040;-71
2022/05/31 00:34:58;;;;;;;3.90;2.92;;;;;;;4.06;87.78;98503.19;4187837;28;20484;-71
2022/05/31 00:37:00;;;;;;;5.53;2.80;;;;;;;4.04;88.07;98505.44;4187011;28;20159;-71
2022/05/31 00:39:00;;;;;;;5.22;2.75;;;;;;;4.02;87.66;98497.56;4188615;28;20090;-71
2022/05/31 00:41:26;;;;;;;4.40;2.42;;;;;;;4.04;87.40;98505.44;4187523;28;20119;-71
2022/05/31 00:43:26;;;;;;;6.47;3.10;;;;;;;4.02;88.01;98507.72;4186472;28;20036;-71
2022/05/31 00:45:35;;;;;;;6.00;2.53;;;;;;;3.98;87.53;98501.31;4187256;28;20123;-71
2022/05/31 00:47:36;;;;;;;6.82;3.90;;;;;;;3.90;87.78;98503.78;4186132;28;20419;-71
2022/05/31 00:49:56;;;;;;;5.10;2.78;;;;;;;3.84;89.53;98507.03;4185537;28;20052;-71
2022/05/31 00:52:00;;;;;;;4.45;2.72;;;;;;;3.85;88.13;98500.44;4187038;28;20067;-71
2022/05/31 00:54:04;;;;;;;6.57;2.42;;;;;;;3.84;88.62;98499.63;4189136;28;20461;-71
2022/05/31 00:56:10;;;;;;;3.75;2.60;;;;;;;3.85;89.05;98503.97;4186811;28;20036;-71
2022/05/31 00:58:17;;;;;;;4.05;2.65;;;;;;;3.87;88.77;98504.44;4187127;28;20350;-71
2022/05/31 01:00:18;;;;;;;5.78;2.58;;;;;;;3.87;87.80;98504.44;4188356;28;20463;-71
2022/05/31 01:02:19;;;;;;;4.20;2.90;;;;;;;3.76;89.71;98497.75;4189675;28;20234;-71
2022/05/31 01:04:25;;;;;;;4.07;2.67;;;;;;;3.67;90.91;98495.06;4188677;28;20036;-71
2022/05/31 01:06:27;;;;;;;4.65;2.78;;;;;;;3.58;90.19;98497.06;4189249;28;20072;-71
2022/05/31 01:08:27;;;;;;;3.78;2.63;;;;;;;3.55;90.15;98510.59;4189832;28;20126;-71
2022/05/31 01:10:28;;;;;;;7.55;3.75;;;;;;;3.48;92.07;98511.13;4187841;28;20052;-71
2022/05/31 01:12:28;;;;;;;6.70;3.35;;;;;;;3.43;93.08;98510.50;4185452;28;20078;-71
2022/05/31 01:14:29;;;;;;;5.55;3.20;;;;;;;3.44;92.54;98509.38;4185021;28;20052;-71
2022/05/31 01:16:29;;;;;;;3.47;2.60;;;;;;;3.47;90.98;98506.78;4186781;28;20068;-71
2022/05/31 01:18:30;;;;;;;3.20;2.38;;;;;;;3.48;90.75;98508.41;4186023;28;20523;-71
2022/05/31 01:20:30;;;;;;;5.95;2.92;;;;;;;3.51;89.46;98496.78;4186940;28;20187;-71
2022/05/31 01:22:41;;;;;;;3.40;2.72;;;;;;;3.46;90.25;98496.16;4187173;28;20423;-71
2022/05/31 01:24:56;;;;;;;3.92;2.88;;;;;;;3.50;88.70;98497.13;4187779;28;20048;-71
2022/05/31 01:27:12;;;;;;;4.50;2.80;;;;;;;3.46;89.76;98502.44;4187477;28;20287;-71
2022/05/31 01:29:21;;;;;;;8.77;3.85;;;;;;;3.48;88.98;98500.19;4186609;28;20060;-71
2022/05/31 01:31:37;;;;;;;3.22;2.65;;;;;;;3.48;88.72;98493.94;4187738;28;20131;-71
2022/05/31 01:33:46;;;;;;;3.33;2.55;;;;;;;3.44;89.28;98495.69;4186667;28;20477;-71
2022/05/31 01:35:46;;;;;;;6.10;2.55;;;;;;;3.49;89.62;98496.31;4187507;28;20408;-71
2022/05/31 01:38:09;;;;;;;3.92;2.63;;;;;;;3.49;89.26;98492.78;4187153;28;20439;-71
2022/05/31 01:40:16;;;;;;;4.72;2.75;;;;;;;3.45;89.69;98500.84;4186733;28;20057;-71
2022/05/31 01:42:28;;;;;;;3.75;2.38;;;;;;;3.40;89.01;98494.78;4187759;28;20818;-71
2022/05/31 01:44:32;;;;;;;4.40;2.75;;;;;;;3.32;89.91;98497.22;4186767;28;20052;-71
2022/05/31 01:46:35;;;;;;;5.30;2.42;;;;;;;3.30;89.62;98485.00;4187207;28;20044;-71
2022/05/31 01:48:40;;;;;;;5.47;2.90;;;;;;;3.27;90.30;98488.41;4186634;28;20078;-71
2022/05/31 01:50:41;;;;;;;4.75;2.72;;;;;;;3.27;89.88;98497.41;4187270;28;20044;-71
2022/05/31 01:52:43;;;;;;;3.85;2.45;;;;;;;3.31;89.51;98492.88;4188131;28;20516;-71
2022/05/31 01:54:44;;;;;;;3.97;2.30;;;;;;;3.31;89.58;98497.53;4190468;28;20040;-71
2022/05/31 01:56:49;;;;;;;4.50;2.70;;;;;;;3.33;88.99;98490.63;4186989;28;20033;-71
2022/05/31 01:58:52;;;;;;;3.35;2.45;;;;;;;3.38;89.07;98489.59;4186630;28;20084;-71
2022/05/31 02:00:53;;;;;;;4.13;2.55;;;;;;;3.39;89.41;98488.47;4202130;27;20059;-71
2022/05/31 02:02:58;;;;;;;3.53;2.60;;;;;;;3.34;89.80;98500.41;4201888;27;20468;-71
2022/05/31 02:04:59;;;;;;;4.55;2.92;;;;;;;3.26;90.00;98504.00;4201438;27;20048;-71
2022/05/31 02:07:15;;;;;;;3.45;2.70;;;;;;;3.18;89.83;98496.63;4187010;28;20326;-71
2022/05/31 02:09:15;;;;;;;3.90;2.50;;;;;;;3.16;89.21;98493.44;4186026;28;20503;-71
2022/05/31 02:11:15;;;;;;;7.03;2.50;;;;;;;3.20;90.19;98493.56;4186882;28;20041;-71
2022/05/31 02:13:17;;;;;;;4.10;2.67;;;;;;;3.24;90.64;98500.81;4190887;28;20176;-71
2022/05/31 02:15:18;;;;;;;4.43;2.75;;;;;;;3.25;90.57;98499.66;4195886;28;20330;-71
2022/05/31 02:17:20;;;;;;;3.90;2.75;;;;;;;3.26;90.45;98489.53;4186800;28;20048;-71
2022/05/31 02:19:25;;;;;;;3.97;2.53;;;;;;;3.26;89.73;98493.06;4186187;28;20223;-71
2022/05/31 02:21:25;;;;;;;4.65;2.92;;;;;;;3.17;91.64;98495.03;4186778;28;20625;-71
2022/05/31 02:23:25;;;;;;;4.45;2.88;;;;;;;3.08;92.47;98494.28;4186780;28;20132;-71
2022/05/31 02:25:26;;;;;;;5.13;2.95;;;;;;;2.98;92.30;98486.41;4186508;28;20032;-71
2022/05/31 02:27:26;;;;;;;4.10;2.72;;;;;;;2.92;93.62;98496.75;4200953;27;20087;-71
2022/05/31 02:29:30;;;;;;;3.92;2.58;;;;;;;2.86;94.08;98498.06;4194402;27;20549;-71
2022/05/31 02:31:30;;;;;;;5.55;2.85;;;;;;;2.79;95.42;98489.56;4186668;28;20374;-71
2022/05/31 02:33:31;;;;;;;3.70;2.92;;;;;;;2.74;95.47;98485.09;4186515;28;20060;-71
2022/05/31 02:35:31;;;;;;;5.93;3.10;;;;;;;2.76;94.35;98482.81;4186458;28;20053;-71
2022/05/31 02:37:32;;;;;;;6.40;3.17;;;;;;;2.72;94.08;98495.50;4186305;28;20425;-71
2022/05/31 02:39:32;;;;;;;4.25;2.85;;;;;;;2.65;95.52;98478.00;4185785;28;20251;-71
2022/05/31 02:41:33;;;;;;;4.03;2.90;;;;;;;2.65;95.86;98483.47;4186267;28;20424;-71
2022/05/31 02:43:33;;;;;;;5.07;3.13;;;;;;;2.63;95.32;98488.47;4186885;28;20041;-71
2022/05/31 02:45:34;;;;;;;5.20;3.15;;;;;;;2.64;95.95;98490.06;4185888;28;20044;-71
2022/05/31 02:47:34;;;;;;;10.07;4.75;;;;;;;2.62;96.35;98493.13;4186032;28;20055;-71
2022/05/31 02:49:37;;;;;;;18.75;7.47;;;;;;;2.59;95.90;98482.88;4185591;28;20051;-71
2022/05/31 02:51:40;;;;;;;40.42;13.95;;;;;;;2.63;95.58;98475.63;4186120;28;20092;-71
2022/05/31 02:53:40;;;;;;;22.25;8.65;;;;;;;2.69;92.93;98479.78;4186491;28;20048;-71
2022/05/31 02:55:41;;;;;;;21.65;7.70;;;;;;;2.73;93.11;98485.38;4201336;27;20369;-71
2022/05/31 02:57:41;;;;;;;22.95;8.95;;;;;;;2.65;94.62;98467.09;4193447;27;20127;-71
2022/05/31 02:59:41;;;;;;;7.25;4.35;;;;;;;2.60;95.52;98479.00;4185365;28;20432;-71
2022/05/31 03:01:43;;;;;;;10.00;4.60;;;;;;;2.56;96.83;98483.50;4186327;28;20047;-70
2022/05/31 03:03:43;;;;;;;10.35;4.03;;;;;;;2.53;97.12;98486.88;4187094;28;20151;-70
2022/05/31 03:05:44;;;;;;;5.68;3.65;;;;;;;2.53;97.29;98484.16;4186672;28;20068;-70
2022/05/31 03:07:44;;;;;;;7.15;3.72;;;;;;;2.56;97.08;98483.50;4192349;28;20606;-70
2022/05/31 03:09:44;;;;;;;5.45;3.28;;;;;;;2.57;97.73;98479.66;4200755;27;20092;-70
2022/05/31 03:11:55;;;;;;;5.78;3.10;;;;;;;2.62;98.46;98486.88;4201457;27;20161;-70
2022/05/31 03:14:01;;;;;;;3.88;2.95;;;;;;;2.61;99.41;98477.06;4188150;27;20476;-70
2022/05/31 03:16:02;;;;;;;4.97;3.05;;;;;;;2.61;99.68;98486.06;4189793;28;20053;-70
2022/05/31 03:18:09;;;;;;;5.13;3.00;;;;;;;2.63;99.75;98472.88;4190351;28;20337;-71
2022/05/31 03:20:15;;;;;;;6.05;3.20;;;;;;;2.68;97.39;98475.44;4189473;28;20112;-71
2022/05/31 03:22:22;;;;;;;5.45;2.92;;;;;;;2.72;96.05;98476.38;4186062;28;20021;-71
2022/05/31 03:24:40;;;;;;;4.35;2.92;;;;;;;2.80;95.61;98481.03;4185472;28;20040;-71
2022/05/31 03:26:41;;;;;;;4.88;3.00;;;;;;;2.80;95.18;98467.34;4184963;28;20044;-70
2022/05/31 03:28:42;;;;;;;5.40;3.17;;;;;;;2.81;94.59;98473.63;4184404;28;20465;-71
2022/05/31 03:30:42;;;;;;;5.05;2.92;;;;;;;2.76;95.36;98469.16;4185259;28;20186;-71
2022/05/31 03:32:44;;;;;;;6.85;2.85;;;;;;;2.74;95.86;98478.81;4188690;28;20040;-71
2022/05/31 03:34:44;;;;;;;3.95;2.95;;;;;;;2.74;95.75;98478.81;4200788;27;20040;-71
2022/05/31 03:36:45;;;;;;;4.25;3.40;;;;;;;2.73;95.66;98469.00;4187010;28;20365;-71
2022/05/31 03:38:45;;;;;;;5.10;3.28;;;;;;;2.70;95.89;98472.38;4189610;28;20041;-71
2022/05/31 03:40:58;;;;;;;5.15;3.22;;;;;;;2.67;97.04;98473.84;4188262;27;20048;-71
2022/05/31 03:43:01;;;;;;;5.20;3.15;;;;;;;2.65;97.99;98476.13;4184204;28;20076;-71
2022/05/31 03:45:01;;;;;;;3.63;2.83;;;;;;;2.61;98.24;98474.34;4185822;28;20489;-71
2022/05/31 03:47:05;;;;;;;4.03;2.60;;;;;;;2.59;98.72;98477.41;4187370;28;20143;-71
2022/05/31 03:49:06;;;;;;;5.03;3.00;;;;;;;2.57;99.27;98471.47;4187876;28;20102;-71
2022/05/31 03:51:09;;;;;;;5.20;2.90;;;;;;;2.60;99.20;98472.75;4189567;28;20437;-71
2022/05/31 03:53:11;;;;;;;5.80;3.47;;;;;;;2.59;99.11;98471.94;4187072;28;20047;-71
2022/05/31 03:55:12;;;;;;;;;;;;;;;2.63;98.82;98472.88;4189453;28;20106;-71
2022/05/31 03:57:18;;;;;;;4.35;3.00;;;;;;;2.67;98.45;98471.13;4198400;28;20370;-71
2022/05/31 03:59:18;;;;;;;4.80;2.65;;;;;;;2.71;97.92;98474.78;4199796;27;20139;-71
2022/05/31 04:01:19;;;;;;;4.35;2.80;;;;;;;2.72;97.58;98470.13;4203165;27;20213;-71
2022/05/31 04:03:20;;;;;;;6.85;3.15;;;;;;;2.76;96.06;98473.81;4195453;27;20052;-71
2022/05/31 04:05:20;;;;;;;4.75;3.08;;;;;;;2.79;95.49;98470.41;4192175;28;20056;-71
2022/05/31 04:07:20;;;;;;;6.07;2.88;;;;;;;2.83;96.09;98476.06;4196417;27;20123;-71
2022/05/31 04:09:20;;;;;;;4.68;3.03;;;;;;;2.90;96.49;98473.63;4189151;28;20067;-70
2022/05/31 04:11:21;;;;;;;4.40;2.50;;;;;;;2.93;96.90;98468.28;4188224;28;20341;-71
2022/05/31 04:13:22;;;;;;;3.97;3.10;;;;;;;2.98;96.63;98464.56;4200888;27;20372;-71
2022/05/31 04:15:23;;;;;;;7.25;3.80;;;;;;;3.01;96.77;98469.38;4204139;27;20040;-71
2022/05/31 04:17:23;;;;;;;5.30;3.50;;;;;;;3.02;97.76;98476.44;4193911;28;20398;-71
2022/05/31 04:19:23;;;;;;;7.60;3.58;;;;;;;3.05;98.30;98473.03;4197863;27;20085;-70
2022/05/31 04:21:24;;;;;;;5.40;3.40;;;;;;;3.08;97.52;98483.34;4188836;28;20036;-70
2022/05/31 04:25:44;;;;;;;9.75;4.57;;;;;;;3.17;96.73;98475.91;4192573;28;20101;-70
2022/05/31 04:27:44;;;;;;;7.97;4.80;;;;;;;3.24;96.01;98484.41;4195005;27;20052;-70
2022/05/31 04:29:45;;;;;;;5.65;3.80;;;;;;;3.24;97.12;98481.66;4199137;28;20434;-70
2022/05/31 04:31:45;;;;;;;5.85;3.92;;;;;;;3.25;97.04;98490.66;4191218;27;20211;-70
2022/05/31 04:33:46;;;;;;;6.80;3.70;;;;;;;3.25;96.94;98488.72;4191852;28;20036;-71
2022/05/31 04:35:46;;;;;;;6.15;3.22;;;;;;;3.25;96.78;98486.00;4188482;28;20539;-71
2022/05/31 04:37:46;;;;;;;6.15;3.38;;;;;;;3.26;97.05;98476.66;4188291;28;20305;-71
2022/05/31 04:39:47;;;;;;;5.32;3.58;;;;;;;3.28;97.15;98487.25;4187739;28;20446;-71
2022/05/31 04:41:47;;;;;;;5.15;3.35;;;;;;;3.30;97.90;98474.84;4191810;28;20081;-71
2022/05/31 04:43:48;;;;;;;7.50;4.28;;;;;;;3.41;97.83;98480.75;4204430;27;20106;-71
2022/05/31 04:45:48;;;;;;;6.63;3.50;;;;;;;3.47;97.54;98481.34;4189857;28;20055;-71
2022/05/31 04:47:49;;;;;;;6.18;3.25;;;;;;;3.48;97.90;98491.19;4199686;28;20059;-71
2022/05/31 04:49:49;;;;;;;4.78;3.20;;;;;;;3.46;98.08;98482.50;4203440;27;20040;-71
2022/05/31 04:51:49;;;;;;;5.65;3.33;;;;;;;3.47;98.60;98482.16;4202830;27;20090;-71
2022/05/31 04:53:50;;;;;;;4.95;3.30;;;;;;;3.49;98.92;98481.84;4202771;27;20040;-71
2022/05/31 04:55:50;;;;;;;4.03;2.90;;;;;;;3.52;98.68;98472.97;4202879;27;20262;-71
2022/05/31 04:57:51;;;;;;;6.07;3.53;;;;;;;3.59;98.67;98478.72;4193249;27;20128;-71
2022/05/31 04:59:52;;;;;;;5.63;3.10;;;;;;;3.66;98.49;98476.25;4186606;28;20047;-71
2022/05/31 05:01:52;;;;;;;5.40;3.50;;;;;;;3.79;98.32;98471.66;4192052;28;20094;-71
2022/05/31 05:03:54;;;;;;;6.63;3.58;;;;;;;3.92;98.39;98471.38;4187490;28;20097;-71
2022/05/31 05:06:01;;;;;;;6.20;3.53;;;;;;;3.99;98.66;98467.31;4189960;27;20052;-71
2022/05/31 05:08:02;;;;;;;5.50;3.45;;;;;;;4.07;98.00;98464.50;4137343;28;20526;-71
2022/05/31 05:10:04;;;;;;;6.80;3.90;;;;;;;4.15;96.97;98469.13;4190368;28;20020;-71
2022/05/31 05:12:05;;;;;;;4.50;3.13;;;;;;;4.19;95.28;98464.56;4197354;27;20184;-71
2022/05/31 05:14:05;;;;;;;5.60;3.60;;;;;;;4.28;95.85;98461.72;4201499;28;20024;-71
2022/05/31 05:16:07;;;;;;;5.38;3.50;;;;;;;4.41;95.60;98463.38;4203521;27;20027;-71
2022/05/31 05:18:09;;;;;;;6.00;3.95;;;;;;;4.56;95.60;98461.16;4194188;28;20032;-71
2022/05/31 05:20:10;;;;;;;7.63;3.58;;;;;;;4.70;95.21;98467.09;4187688;28;20029;-71
2022/05/31 05:22:10;;;;;;;6.30;3.50;;;;;;;4.79;94.52;98457.63;4203409;27;20100;-71
2022/05/31 05:24:11;;;;;;;7.03;3.38;;;;;;;4.87;93.12;98457.88;4202202;27;20331;-71
2022/05/31 05:26:12;;;;;;;7.63;3.67;;;;;;;4.96;92.92;98453.88;4197505;28;20035;-71
2022/05/31 05:30:40;;;;;;;4.22;3.10;;;;;;;5.21;91.25;98456.63;4187512;28;20102;-71
2022/05/31 05:32:40;;;;;;;5.93;4.05;;;;;;;5.33;92.08;98451.97;4187766;28;20053;-71
2022/05/31 05:34:40;;;;;;;6.07;3.58;;;;;;;5.34;91.72;98444.53;4187267;28;20056;-71
2022/05/31 05:36:41;;;;;;;6.90;4.00;;;;;;;5.38;92.65;98447.38;4202346;27;20129;-71
2022/05/31 05:38:42;;;;;;;9.00;3.45;;;;;;;5.49;92.35;98448.53;4201710;27;20177;-71
2022/05/31 05:40:42;;;;;;;7.00;4.38;;;;;;;5.68;90.69;98447.91;4193606;28;20052;-71
2022/05/31 05:42:43;;;;;;;7.20;4.07;;;;;;;5.86;91.03;98449.25;4185722;28;20052;-71
2022/05/31 05:44:43;;;;;;;6.30;3.75;;;;;;;6.02;89.93;98443.84;4187619;27;20059;-71
2022/05/31 05:46:43;;;;;;;8.10;3.65;;;;;;;6.13;90.55;98447.72;4185079;28;20241;-71
2022/05/31 05:48:45;;;;;;;6.53;4.47;;;;;;;6.11;90.49;98448.03;4196795;28;20051;-71
2022/05/31 05:50:45;;;;;;;5.68;3.33;;;;;;;6.09;90.94;98444.84;4193483;27;20464;-71
2022/05/31 05:52:53;;;;;;;7.22;3.88;;;;;;;6.04;89.82;98450.59;4186689;28;20040;-71
2022/05/31 05:54:53;;;;;;;7.13;3.90;;;;;;;5.98;90.69;98443.75;4187175;28;20044;-71
2022/05/31 05:56:53;;;;;;;5.47;3.20;;;;;;;5.98;90.81;98451.19;4184254;28;20539;-71
2022/05/31 05:58:54;;;;;;;6.25;3.50;;;;;;;5.96;89.16;98440.56;4186785;28;20080;-71
2022/05/31 06:00:54;;;;;;;7.05;3.70;;;;;;;5.96;89.60;98443.31;4186854;28;20417;-71
2022/05/31 06:03:20;;;;;;;10.35;4.13;;;;;;;6.08;89.62;98436.97;4187096;28;20441;-71
2022/05/31 06:05:24;;;;;;;8.00;3.88;;;;;;;6.34;90.58;98442.78;4186670;28;20052;-71
2022/05/31 06:07:30;;;;;;;6.07;3.70;;;;;;;6.59;90.44;98448.97;4186160;28;20155;-71
2022/05/31 06:09:33;;;;;;;7.00;3.40;;;;;;;6.69;89.92;98448.44;4185968;28;20352;-71
2022/05/31 06:11:45;;;;;;;8.57;4.18;;;;;;;6.87;88.16;98443.44;4186355;28;20143;-71
2022/05/31 06:13:52;;;;;;;6.50;3.60;;;;;;;7.02;86.38;98450.06;4201115;27;20048;-71
2022/05/31 06:15:55;;;;;;;7.10;4.07;;;;;;;7.17;85.22;98441.00;4201826;27;20083;-71
2022/05/31 06:17:59;;;;;;;6.55;3.70;;;;;;;7.30;85.49;98444.47;4200712;27;20036;-71
2022/05/31 06:20:03;;;;;;;5.60;4.38;;;;;;;7.38;84.89;98437.97;4191169;27;20115;-71
2022/05/31 06:22:05;;;;;;;10.30;4.15;;;;;;;7.46;85.29;98441.69;4186323;28;20045;-71
2022/05/31 06:24:06;;;;;;;;;;;;;;;7.58;85.62;98436.06;4187362;28;20063;-72
2022/05/31 06:26:06;;;;;;;4.70;3.50;;;;;;;7.67;84.97;98444.13;4186282;28;20050;-71
2022/05/31 06:28:07;;;;;;;9.77;4.18;;;;;;;7.73;86.05;98442.69;4184982;28;20028;-71
2022/05/31 06:30:08;;;;;;;6.78;4.43;;;;;;;7.79;84.75;98444.81;4186276;28;20406;-71
2022/05/31 06:32:08;;;;;;;7.10;3.97;;;;;;;7.85;85.09;98446.09;4186531;28;20016;-71
2022/05/31 06:34:09;;;;;;;5.97;3.67;;;;;;;7.90;84.05;98442.28;4186588;28;20312;-71
2022/05/31 06:36:09;;;;;;;6.28;3.83;;;;;;;8.03;84.77;98448.47;4186384;28;20376;-71
2022/05/31 06:38:10;;;;;;;7.13;3.83;;;;;;;8.08;85.03;98448.16;4186884;28;20282;-71
2022/05/31 06:40:10;;;;;;;5.10;3.70;;;;;;;8.21;85.78;98451.59;4190105;27;20036;-72
2022/05/31 06:42:13;;;;;;;6.07;3.95;;;;;;;8.31;85.65;98445.47;4199538;27;20561;-71
2022/05/31 06:44:13;;;;;;;6.45;4.05;;;;;;;8.42;85.51;98446.50;4191667;27;20127;-71
2022/05/31 06:46:14;;;;;;;5.70;3.63;;;;;;;8.50;83.47;98447.44;4192253;28;20146;-71
2022/05/31 06:48:14;;;;;;;5.43;3.47;;;;;;;8.63;78.59;98446.91;4186120;28;20076;-71
2022/05/31 06:50:14;;;;;;;5.60;4.10;;;;;;;8.77;82.89;98449.16;4185858;28;20024;-72
2022/05/31 06:57:00;;;;;;;7.35;4.57;;;;;;;9.05;85.42;98437.81;4198834;28;20047;-71
2022/05/31 06:59:02;;;;;;;7.20;4.28;;;;;;;9.14;84.00;98434.78;4189471;28;20072;-71
2022/05/31 07:01:04;;;;;;;7.77;4.20;;;;;;;9.24;82.38;98442.44;4186041;28;20120;-71
2022/05/31 07:03:04;;;;;;;8.85;4.15;;;;;;;9.33;81.43;98444.94;4187569;28;20129;-71
2022/05/31 07:05:05;;;;;;;6.43;3.90;;;;;;;9.40;80.92;98442.31;4185546;28;20443;-71
2022/05/31 07:07:06;;;;;;;5.45;3.63;;;;;;;9.44;81.30;98443.97;4189122;28;20040;-71
2022/05/31 07:09:06;;;;;;;5.97;3.60;;;;;;;9.50;77.53;98439.69;4187354;28;20152;-71
2022/05/31 07:11:07;;;;;;;7.18;4.13;;;;;;;9.59;80.64;98431.13;4186045;28;20036;-71
2022/05/31 07:13:07;;;;;;;6.82;4.40;;;;;;;9.77;82.74;98439.72;4186713;28;20235;-71
2022/05/31 07:15:08;;;;;;;8.15;4.35;;;;;;;9.87;79.71;98438.25;4186251;28;20051;-71
2022/05/31 07:17:09;;;;;;;6.80;3.88;;;;;;;9.99;77.28;98440.78;4186269;28;20044;-71
2022/05/31 07:19:09;;;;;;;5.30;3.72;;;;;;;10.14;78.41;98431.50;4186010;28;20102;-71
2022/05/31 07:21:10;;;;;;;5.70;3.60;;;;;;;10.32;79.74;98426.19;4188966;28;20509;-71
2022/05/31 07:23:11;;;;;;;4.85;3.60;;;;;;;10.50;78.88;98427.19;4192935;28;20437;-71
2022/05/31 07:25:12;;;;;;;8.48;3.85;;;;;;;10.73;77.86;98427.03;4189276;28;20833;-71
2022/05/31 07:27:13;;;;;;;8.55;4.43;;;;;;;10.85;78.96;98423.22;4189090;28;20790;-71
2022/05/31 07:29:14;;;;;;;8.13;4.45;;;;;;;10.86;75.92;98422.03;4186731;28;20048;-71
2022/05/31 07:31:14;;;;;;;8.02;4.35;;;;;;;10.95;75.78;98419.75;4190391;28;20057;-71
2022/05/31 07:33:15;;;;;;;4.85;3.33;;;;;;;11.03;74.58;98426.16;4189054;28;20032;-71
2022/05/31 07:35:15;;;;;;;6.18;3.78;;;;;;;11.09;75.79;98424.59;4189271;28;20044;-71
2022/05/31 07:37:15;;;;;;;4.72;3.00;;;;;;;11.11;74.43;98416.72;4188798;28;20112;-71
2022/05/31 07:39:18;;;;;;;5.22;3.30;;;;;;;11.37;75.54;98418.50;4188169;28;20048;-71
2022/05/31 07:41:19;;;;;;;5.15;3.85;;;;;;;11.57;74.57;98413.47;4188961;28;20048;-71
2022/05/31 07:43:19;;;;;;;12.05;3.95;;;;;;;11.59;72.83;98409.16;4188811;28;20079;-71
2022/05/31 07:45:20;;;;;;;5.05;4.10;;;;;;;11.61;73.02;98411.53;4188664;28;20610;-71
2022/05/31 07:47:22;;;;;;;5.93;3.42;;;;;;;11.75;72.68;98400.53;4197872;28;20036;-71
2022/05/31 07:49:23;;;;;;;7.53;3.37;;;;;;;11.94;72.70;98405.81;4195585;27;20052;-71
2022/05/31 07:51:24;;;;;;;5.88;3.83;;;;;;;12.10;71.10;98399.94;4188613;28;20626;-71
2022/05/31 07:53:24;;;;;;;4.22;3.22;;;;;;;12.25;70.66;98401.59;4188445;28;20040;-71
2022/05/31 07:55:27;;;;;;;4.60;3.22;;;;;;;12.37;71.45;98394.88;4188640;28;20048;-71
2022/05/31 07:59:46;;;;;;;5.50;3.65;;;;;;;12.67;69.60;98391.78;4202777;27;20273;-71
2022/05/31 08:01:47;;;;;;;6.60;3.75;;;;;;;12.71;69.69;98380.69;4203572;27;20130;-71
2022/05/31 08:03:47;;;;;;;7.28;3.80;;;;;;;12.89;70.93;98387.84;4202663;27;20430;-71
2022/05/31 08:05:48;;;;;;;6.90;3.90;;;;;;;12.94;70.86;98387.47;4188382;28;20127;-71
2022/05/31 08:07:49;;;;;;;4.10;3.47;;;;;;;13.12;69.38;98389.44;4188516;28;20064;-71
2022/05/31 08:09:49;;;;;;;8.90;3.67;;;;;;;13.29;72.76;98374.78;4187984;28;20051;-71
2022/05/31 08:11:49;;;;;;;6.45;3.47;;;;;;;13.44;71.85;98373.56;4196503;28;20036;-71
2022/05/31 08:13:50;;;;;;;4.97;3.22;;;;;;;13.54;68.96;98373.94;4204342;27;20054;-72
2022/05/31 08:15:51;;;;;;;4.72;3.35;;;;;;;13.62;67.76;98369.97;4201279;28;20793;-72
2022/05/31 08:17:51;;;;;;;5.70;3.70;;;;;;;13.87;70.12;98372.66;4188584;28;20155;-72
2022/05/31 08:19:54;;;;;;;5.47;3.78;;;;;;;13.94;65.81;98375.44;4187668;28;20072;-72
2022/05/31 08:21:54;;;;;;;;;;;;;;;13.89;65.73;98373.03;4187971;28;20040;-71
2022/05/31 08:23:57;;;;;;;5.13;3.90;;;;;;;13.93;65.46;98371.06;4188234;28;19917;-71
2022/05/31 08:25:58;;;;;;;3.78;3.13;;;;;;;13.84;64.74;98365.94;4198689;28;20143;-71
2022/05/31 08:27:59;;;;;;;4.93;3.63;;;;;;;13.92;65.62;98364.72;4188442;28;20114;-72
2022/05/31 08:29:59;;;;;;;5.28;3.35;;;;;;;14.05;64.83;98365.84;4187547;28;20053;-72
2022/05/31 08:31:59;;;;;;;7.22;3.78;;;;;;;14.05;64.38;98357.47;4188992;28;20143;-72
2022/05/31 08:34:00;;;;;;;6.65;3.65;;;;;;;13.91;63.23;98359.56;4203531;27;20044;-72
2022/05/31 08:36:00;;;;;;;7.50;3.47;;;;;;;13.86;66.12;98368.31;4190917;27;20071;-72
2022/05/31 08:38:00;;;;;;;7.07;4.22;;;;;;;13.91;65.92;98360.34;4187368;28;20044;-72
2022/05/31 08:40:01;;;;;;;5.68;4.05;;;;;;;13.84;64.88;98363.16;4189822;27;20033;-72
2022/05/31 08:42:06;;;;;;;6.65;4.13;;;;;;;13.91;65.54;98373.47;4192196;28;20028;-72
2022/05/31 08:44:42;;;;;;;5.75;3.53;;;;;;;13.88;65.85;98363.13;4188230;28;20032;-72
2022/05/31 08:46:48;;;;;;;4.90;3.60;;;;;;;13.90;64.90;98357.94;4187810;28;20037;-72
2022/05/31 08:49:01;;;;;;;6.75;3.70;;;;;;;14.06;63.56;98347.16;4187021;28;20071;-72
2022/05/31 08:53:43;;;;;;;4.43;3.55;;;;;;;14.22;64.70;98346.69;4203122;27;20051;-72
2022/05/31 08:58:30;;;;;;;5.95;3.60;;;;;;;14.44;62.38;98347.38;4190557;28;20377;-72
2022/05/31 09:00:36;;;;;;;7.22;3.38;;;;;;;14.34;63.11;98349.81;4187894;28;20043;-72
2022/05/31 09:02:57;;;;;;;4.82;3.38;;;;;;;14.21;62.92;98345.88;4186135;28;20132;-72
2022/05/31 09:05:15;;;;;;;5.53;3.58;;;;;;;14.24;61.81;98347.88;4187561;28;20067;-72
2022/05/31 09:07:31;;;;;;;4.68;3.83;;;;;;;14.39;63.94;98339.44;4187368;28;20044;-72
2022/05/31 09:09:57;;;;;;;5.85;3.97;;;;;;;14.68;61.35;98348.44;4188982;27;20049;-72
2022/05/31 09:12:14;;;;;;;5.65;3.70;;;;;;;14.93;60.63;98334.31;4191128;27;20048;-72
2022/05/31 09:14:22;;;;;;;6.00;3.50;;;;;;;14.96;62.56;98342.63;4195946;27;20044;-72
2022/05/31 09:16:36;;;;;;;5.82;3.42;;;;;;;14.85;60.67;98341.94;4202579;27;20113;-72
2022/05/31 09:18:44;;;;;;;6.25;3.33;;;;;;;14.61;60.15;98332.56;4201188;27;20028;-72
2022/05/31 09:20:53;;;;;;;5.90;3.55;;;;;;;14.54;60.31;98336.19;4202567;27;20075;-72
2022/05/31 09:22:54;;;;;;;7.82;3.33;;;;;;;14.62;61.44;98334.16;4202671;28;20309;-72
2022/05/31 09:24:54;;;;;;;5.30;3.30;;;;;;;14.80;60.70;98325.66;4202596;27;20047;-72
2022/05/31 09:27:08;;;;;;;4.15;3.75;;;;;;;14.91;60.32;98331.94;4202214;27;20048;-72
2022/05/31 09:29:18;;;;;;;7.57;4.28;;;;;;;14.81;60.90;98316.91;4201999;27;20070;-72
2022/05/31 09:31:43;;;;;;;8.50;3.08;;;;;;;14.80;59.03;98306.16;4201661;27;20127;-72
2022/05/31 09:33:56;;;;;;;3.33;2.72;;;;;;;14.98;58.53;98308.81;4201463;28;20202;-72
2022/05/31 09:36:11;;;;;;;6.68;2.85;;;;;;;15.19;59.97;98311.38;4187386;28;20344;-72
2022/05/31 09:38:24;;;;;;;3.10;2.53;;;;;;;15.30;56.92;98314.06;4187171;28;20109;-72
2022/05/31 09:40:45;;;;;;;4.40;2.75;;;;;;;15.40;58.76;98310.41;4187159;28;20362;-72
2022/05/31 09:42:56;;;;;;;5.15;2.72;;;;;;;15.52;55.76;98317.44;4185937;28;20045;-72
2022/05/31 09:45:10;;;;;;;7.45;2.63;;;;;;;15.57;53.23;98317.00;4186533;28;20384;-72
2022/05/31 09:47:18;;;;;;;2.88;2.50;;;;;;;15.65;53.62;98307.38;4186755;28;20041;-72
2022/05/31 09:49:36;;;;;;;3.45;2.47;;;;;;;15.63;53.70;98302.19;4186142;28;20056;-72
2022/05/31 09:51:42;;;;;;;8.70;2.95;;;;;;;15.61;51.61;98301.81;4189860;28;20516;-72
2022/05/31 09:58:38;;;;;;;4.85;2.38;;;;;;;15.85;53.18;98288.00;4185947;28;20048;-72
2022/05/31 10:01:03;;;;;;;3.42;2.33;;;;;;;16.11;53.57;98278.88;4186630;28;20051;-72
2022/05/31 10:03:09;;;;;;;3.38;2.22;;;;;;;16.07;49.19;98269.75;4199921;27;20123;-72
2022/05/31 10:05:14;;;;;;;3.90;2.20;;;;;;;15.84;50.52;98264.88;4201918;27;20040;-72
2022/05/31 10:07:30;;;;;;;4.68;2.30;;;;;;;15.77;51.47;98262.19;4185699;28;20512;-72